Chiang Mai International Airport


Codes: VTCC/CNX
Name: Chiang Mai International Airport
City: Chiang Mai
Country: Thailand
Elevation: 1036 ft.
Wikipedia:

Photos at Chiang Mai International Airport


   Photos courtesy of SpottingLog. You can add your own sightings and photos by signing up for a free trial today.



No photos found.

Weather at Chiang Mai International Airport


Time (UTC)DescriptionTempratureWindCloud coverageVisibilityPressureHumidity
23-May-2024 21:00Moderate Rain25°C0 mph, W83%6577m1007hPa95%
24-May-2024 00:00Light Rain24°C0 mph, N91%7634m1008hPa95%
24-May-2024 03:00Light Rain23°C2 mph, NE98%10000m1008hPa94%
24-May-2024 06:00Light Rain24°C2 mph, SE99%6942m1007hPa89%
24-May-2024 09:00Moderate Rain25°C4 mph, S89%6600m1005hPa84%
24-May-2024 12:00Moderate Rain23°C2 mph, S93%5465m1006hPa94%
24-May-2024 15:00Light Rain22°C2 mph, S99%10000m1008hPa95%
24-May-2024 18:00Light Rain22°C0 mph, W100%5919m1007hPa96%
24-May-2024 21:00Light Rain22°C0 mph, S100%10000m1006hPa94%
25-May-2024 00:00Light Rain22°C0 mph, SE100%10000m1008hPa95%
25-May-2024 03:00Light Rain22°C2 mph, SW100%10000m1009hPa95%
25-May-2024 06:00Light Rain23°C4 mph, SW100%6104m1008hPa95%
25-May-2024 09:00Light Rain22°C2 mph, S100%10000m1006hPa96%
25-May-2024 12:00Light Rain22°C2 mph, SW100%10000m1008hPa98%
25-May-2024 15:00Light Rain22°C2 mph, SW100%10000m1009hPa98%
25-May-2024 18:00Overcast Clouds22°C0 mph, W100%10000m1008hPa98%
25-May-2024 21:00Light Rain22°C0 mph, S100%10000m1007hPa98%
26-May-2024 00:00Light Rain21°C0 mph, SE100%6415m1008hPa98%
26-May-2024 03:00Light Rain22°C2 mph, SW100%5587m1009hPa97%
26-May-2024 06:00Light Rain23°C2 mph, SW100%10000m1008hPa95%
26-May-2024 09:00Light Rain22°C2 mph, SW100%9187m1007hPa97%
26-May-2024 12:00Light Rain22°C0 mph, N100%10000m1007hPa98%
26-May-2024 15:00Overcast Clouds21°C2 mph, SW100%10000m1009hPa98%
26-May-2024 18:00Light Rain21°C0 mph, W100%10000m1008hPa97%
26-May-2024 21:00Overcast Clouds21°C0 mph, W100%10000m1007hPa98%
27-May-2024 00:00Overcast Clouds22°C0 mph, W100%10000m1008hPa96%
27-May-2024 03:00Overcast Clouds23°C0 mph, E100%10000m1008hPa91%
27-May-2024 06:00Light Rain26°C4 mph, SE100%10000m1006hPa73%
27-May-2024 09:00Light Rain28°C4 mph, S100%10000m1003hPa69%
27-May-2024 12:00Light Rain25°C2 mph, SW100%10000m1004hPa84%
27-May-2024 15:00Overcast Clouds23°C2 mph, SW100%10000m1005hPa90%
27-May-2024 18:00Overcast Clouds22°C2 mph, W100%10000m1004hPa92%
27-May-2024 21:00Overcast Clouds22°C2 mph, NW100%10000m1003hPa93%
28-May-2024 00:00Light Rain22°C2 mph, NW100%10000m1005hPa92%
28-May-2024 03:00Light Rain26°C4 mph, S100%10000m1005hPa76%
28-May-2024 06:00Light Rain30°C4 mph, S100%10000m1002hPa61%
28-May-2024 09:00Light Rain28°C4 mph, W100%10000m1000hPa73%
28-May-2024 12:00Light Rain26°C2 mph, W100%10000m1001hPa81%
28-May-2024 15:00Light Rain24°C2 mph, SW100%10000m1003hPa89%
28-May-2024 18:00Overcast Clouds23°C2 mph, SW100%10000m1002hPa90%